createdAt,value
2018-11-10T00:03:16.308Z,18.90
2018-11-10T00:07:56.987Z,34.00
2018-11-10T00:12:37.450Z,67.50
2018-11-10T00:17:17.459Z,77.60
2018-11-10T00:21:57.228Z,58.35
2018-11-10T00:26:37.549Z,65.83
2018-11-10T00:31:17.557Z,55.03
2018-11-10T00:35:57.386Z,41.77
2018-11-10T00:40:37.895Z,57.98
2018-11-10T00:45:17.894Z,52.43
2018-11-10T00:49:57.971Z,32.00
2018-11-10T00:54:38.317Z,47.60
2018-11-10T00:59:18.558Z,44.40
2018-11-10T01:03:58.629Z,29.52
2018-11-10T01:08:39.845Z,23.40
2018-11-10T01:13:19.841Z,26.85
2018-11-10T01:18:00.080Z,16.00
2018-11-10T01:22:40.015Z,12.03
2018-11-10T01:27:26.365Z,47.43
2018-11-10T01:32:06.581Z,23.65
2018-11-10T01:36:46.544Z,26.12
2018-11-10T01:41:26.674Z,32.53
2018-11-10T01:46:06.853Z,24.07
2018-11-10T01:50:47.196Z,10.98
2018-11-10T01:55:27.553Z,7.60
2018-11-10T02:00:10.835Z,7.85
2018-11-10T02:04:51.881Z,13.08
2018-11-10T02:09:32.650Z,14.58
2018-11-10T02:14:12.577Z,16.17
2018-11-10T02:18:53.359Z,9.05
2018-11-10T02:23:33.407Z,8.00
2018-11-10T02:28:13.815Z,7.12
2018-11-10T02:32:53.697Z,5.80
2018-11-10T02:37:34.140Z,7.47
2018-11-10T02:42:15.102Z,6.17
2018-11-10T02:46:55.498Z,7.70
2018-11-10T02:51:35.494Z,7.55
2018-11-10T02:56:15.949Z,8.30
2018-11-10T03:00:55.817Z,7.90
2018-11-10T03:05:37.156Z,9.05
2018-11-10T03:10:17.626Z,9.25
2018-11-10T03:14:57.645Z,9.78
2018-11-10T03:19:37.513Z,8.68
2018-11-10T03:24:17.291Z,9.30
2018-11-10T03:28:57.737Z,11.00
2018-11-10T03:33:38.297Z,12.73
2018-11-10T03:38:18.035Z,10.80
2018-11-10T03:42:57.742Z,11.83
2018-11-10T03:47:37.627Z,9.20
2018-11-10T03:52:17.566Z,9.23
2018-11-10T03:56:57.496Z,8.98
2018-11-10T04:01:37.552Z,7.17
2018-11-10T04:06:17.760Z,7.50
2018-11-10T04:10:58.127Z,8.33
2018-11-10T04:15:38.289Z,7.08
2018-11-10T04:20:18.040Z,5.78
2018-11-10T04:24:58.077Z,6.00
2018-11-10T04:29:37.953Z,6.10
2018-11-10T04:34:17.998Z,4.30
2018-11-10T04:38:57.957Z,5.17
2018-11-10T04:43:38.118Z,5.33
2018-11-10T04:48:17.892Z,3.27
2018-11-10T04:52:59.048Z,4.58
2018-11-10T04:57:38.945Z,3.00
2018-11-10T05:02:18.915Z,2.90
2018-11-10T05:06:58.864Z,3.65
2018-11-10T05:11:39.096Z,4.78
2018-11-10T05:16:18.990Z,2.90
2018-11-10T05:20:58.936Z,4.10
2018-11-10T05:25:39.552Z,3.27
2018-11-10T05:30:19.805Z,3.98
2018-11-10T05:34:59.561Z,3.75
2018-11-10T05:39:39.517Z,2.50
2018-11-10T05:44:19.483Z,2.52
2018-11-10T05:48:59.672Z,5.08
2018-11-10T05:53:39.891Z,4.15
2018-11-10T05:58:19.836Z,2.65
2018-11-10T06:02:59.950Z,2.90
2018-11-10T06:07:46.591Z,4.85
2018-11-10T06:12:26.677Z,3.40
2018-11-10T06:17:07.252Z,5.60
2018-11-10T06:21:47.456Z,9.08
2018-11-10T06:26:28.463Z,11.45
2018-11-10T06:31:08.397Z,8.20
2018-11-10T06:35:48.430Z,7.22
2018-11-10T06:40:28.456Z,6.55
2018-11-10T06:45:08.672Z,3.87
2018-11-10T06:49:49.857Z,4.47
2018-11-10T06:54:29.632Z,5.33
2018-11-10T06:59:09.568Z,6.47
2018-11-10T07:03:49.584Z,4.87
2018-11-10T07:08:29.731Z,3.92
2018-11-10T07:13:09.816Z,5.10
2018-11-10T07:17:49.678Z,10.65
2018-11-10T07:22:29.856Z,5.55
2018-11-10T07:27:10.743Z,4.50
2018-11-10T07:31:50.803Z,6.35
2018-11-10T07:36:30.617Z,5.45
2018-11-10T07:41:10.615Z,6.87
2018-11-10T07:45:50.952Z,5.85
2018-11-10T07:50:30.860Z,11.68
2018-11-10T07:55:12.301Z,7.05
2018-11-10T07:59:52.388Z,8.23
2018-11-10T08:04:32.479Z,6.72
2018-11-10T08:09:13.177Z,8.33
2018-11-10T08:13:53.341Z,6.03
2018-11-10T08:18:33.009Z,6.65
2018-11-10T08:23:13.735Z,6.92
2018-11-10T08:27:53.708Z,5.85
2018-11-10T08:32:33.736Z,5.28
2018-11-10T08:37:13.744Z,5.60
2018-11-10T08:41:53.571Z,5.05
2018-11-10T08:46:33.425Z,6.42
2018-11-10T08:51:14.525Z,7.50
2018-11-10T08:55:55.071Z,8.58
2018-11-10T09:00:35.590Z,6.25
2018-11-10T09:05:15.797Z,6.00
2018-11-10T09:09:55.677Z,7.90
2018-11-10T09:14:37.143Z,5.25
2018-11-10T09:19:18.368Z,6.00
2018-11-10T09:23:58.159Z,8.08
2018-11-10T09:28:37.955Z,6.37
2018-11-10T09:33:18.064Z,12.50
2018-11-10T09:37:58.376Z,6.47
2018-11-10T09:42:38.644Z,6.83
2018-11-10T09:47:18.495Z,5.67
2018-11-10T09:51:58.497Z,6.08
2018-11-10T09:56:38.741Z,8.58
2018-11-10T10:01:18.856Z,9.23
2018-11-10T10:05:59.883Z,8.15
2018-11-10T10:10:41.117Z,5.87
2018-11-10T10:15:21.080Z,8.40
2018-11-10T10:20:01.175Z,6.03
2018-11-10T10:24:41.080Z,6.67
2018-11-10T10:29:21.258Z,6.50
2018-11-10T10:34:01.400Z,8.60
2018-11-10T10:38:41.693Z,7.97
2018-11-10T10:43:21.856Z,5.40
2018-11-10T10:48:01.645Z,5.33
2018-11-10T10:52:43.365Z,4.10
2018-11-10T10:57:23.208Z,7.72
2018-11-10T11:02:08.428Z,10.32
2018-11-10T11:06:48.434Z,5.85
2018-11-10T11:11:29.068Z,8.80
2018-11-10T11:16:10.421Z,6.37
2018-11-10T11:20:50.278Z,3.30
2018-11-10T11:25:31.178Z,6.40
2018-11-10T11:30:11.021Z,6.53
2018-11-10T11:34:50.845Z,5.05
2018-11-10T11:39:31.566Z,6.55
2018-11-10T11:44:12.540Z,4.17
2018-11-10T11:48:52.949Z,5.33
2018-11-10T11:53:33.116Z,6.03
2018-11-10T11:58:13.451Z,4.08
2018-11-10T12:02:53.896Z,3.98
2018-11-10T12:07:33.917Z,4.55
2018-11-10T12:12:13.675Z,5.17
2018-11-10T12:16:53.558Z,7.33
2018-11-10T12:21:33.224Z,4.45
2018-11-10T12:26:13.200Z,4.58
2018-11-10T12:30:54.536Z,7.37
2018-11-10T12:35:34.535Z,4.28
2018-11-10T12:40:14.917Z,6.35
2018-11-10T12:44:54.892Z,7.28
2018-11-10T12:49:35.271Z,5.10
2018-11-10T12:54:15.513Z,4.92
2018-11-10T12:58:55.862Z,5.15
2018-11-10T13:03:36.683Z,4.92
2018-11-10T13:08:16.771Z,6.20
2018-11-10T13:12:57.197Z,5.58
2018-11-10T13:17:38.468Z,5.92
2018-11-10T13:22:19.072Z,6.35
2018-11-10T13:27:00.094Z,4.70
2018-11-10T13:31:40.213Z,7.10
2018-11-10T13:36:20.160Z,4.62
2018-11-10T13:41:01.040Z,6.17
2018-11-10T13:45:40.984Z,5.30
2018-11-10T13:50:20.945Z,16.25
2018-11-10T13:55:01.137Z,4.97
2018-11-10T13:59:40.991Z,5.00
2018-11-10T14:04:20.741Z,4.97
2018-11-10T14:09:01.417Z,5.92
2018-11-10T14:13:42.570Z,6.80
2018-11-10T14:18:22.978Z,5.53
2018-11-10T14:23:03.005Z,4.45
2018-11-10T14:27:43.480Z,5.42
2018-11-10T14:32:24.777Z,3.62
2018-11-10T14:37:05.580Z,3.33
2018-11-10T14:41:46.093Z,4.67
2018-11-10T14:46:26.176Z,5.00
2018-11-10T14:51:06.300Z,5.60
2018-11-10T14:55:46.376Z,4.97
2018-11-10T15:00:27.451Z,5.53
2018-11-10T15:05:08.280Z,4.97
2018-11-10T15:09:48.341Z,6.62
2018-11-10T15:14:28.402Z,8.50
2018-11-10T15:19:08.765Z,6.03
2018-11-10T15:23:48.672Z,5.37
2018-11-10T15:28:28.938Z,5.55
2018-11-10T15:33:09.386Z,6.30
2018-11-10T15:37:50.633Z,4.12
2018-11-10T15:42:33.872Z,7.40
2018-11-10T15:47:13.907Z,6.35
2018-11-10T15:51:54.184Z,6.30
2018-11-10T15:56:33.920Z,7.33
2018-11-10T16:01:13.729Z,5.35
2018-11-10T16:05:54.014Z,6.35
2018-11-10T16:10:34.185Z,8.30
2018-11-10T16:15:15.656Z,9.38
2018-11-10T16:19:55.517Z,8.10
2018-11-10T16:24:35.378Z,7.33
2018-11-10T16:29:15.328Z,7.87
2018-11-10T16:33:56.794Z,8.25
2018-11-10T16:38:38.466Z,6.00
2018-11-10T16:43:18.201Z,7.87
2018-11-10T16:47:58.688Z,6.25
2018-11-10T16:52:39.931Z,7.12
2018-11-10T16:57:20.969Z,7.17
2018-11-10T17:02:02.601Z,6.42
2018-11-10T17:06:45.655Z,6.78
2018-11-10T17:11:27.507Z,8.68
2018-11-10T17:16:08.589Z,7.00
2018-11-10T17:20:50.003Z,7.08
2018-11-10T17:25:30.717Z,6.62
2018-11-10T17:30:14.828Z,9.43
2018-11-10T17:34:54.831Z,10.43
2018-11-10T17:39:34.982Z,6.67
2018-11-10T17:44:15.803Z,6.75
2018-11-10T17:48:57.491Z,10.18
2018-11-10T17:53:38.474Z,7.85
2018-11-10T17:58:19.200Z,7.33
2018-11-10T18:03:00.176Z,8.20
2018-11-10T18:07:41.168Z,8.35
2018-11-10T18:12:22.372Z,8.33
2018-11-10T18:17:03.110Z,9.38
2018-11-10T18:21:43.080Z,8.75
2018-11-10T18:26:22.912Z,14.03
2018-11-10T18:31:02.644Z,12.65
2018-11-10T18:35:42.868Z,11.40
2018-11-10T18:40:24.610Z,10.25
2018-11-10T18:45:05.218Z,8.60
2018-11-10T18:49:45.079Z,8.73
2018-11-10T18:54:25.078Z,12.23
2018-11-10T18:59:04.956Z,12.43
2018-11-10T19:03:44.718Z,17.48
2018-11-10T19:08:25.633Z,10.85
2018-11-10T19:13:05.551Z,14.20
2018-11-10T19:17:45.528Z,10.30
2018-11-10T19:22:25.470Z,13.48
2018-11-10T19:27:05.305Z,12.37
2018-11-10T19:31:45.076Z,10.60
2018-11-10T19:36:25.057Z,12.55
2018-11-10T19:41:05.400Z,11.57
2018-11-10T19:45:45.109Z,19.52
2018-11-10T19:50:25.083Z,16.37
2018-11-10T19:55:06.729Z,17.12
2018-11-10T19:59:46.560Z,13.43
2018-11-10T20:04:26.345Z,9.08
2018-11-10T20:09:08.245Z,7.65
2018-11-10T20:13:48.103Z,8.60
2018-11-10T20:18:27.804Z,6.17
2018-11-10T20:23:07.549Z,6.00
2018-11-10T20:27:47.263Z,3.02
2018-11-10T20:32:27.061Z,3.95
2018-11-10T20:37:06.832Z,2.85
2018-11-10T20:41:46.840Z,5.03
2018-11-10T20:46:26.879Z,2.65
2018-11-10T20:51:06.791Z,5.53
2018-11-10T20:55:46.653Z,5.00
2018-11-10T21:00:26.367Z,5.33
2018-11-10T21:05:07.269Z,2.80
2018-11-10T21:09:47.313Z,3.30
2018-11-10T21:14:27.417Z,2.65
2018-11-10T21:19:07.709Z,1.72
2018-11-10T21:23:47.761Z,4.75
2018-11-10T21:28:27.679Z,3.35
2018-11-10T21:33:07.462Z,2.17
2018-11-10T21:37:47.456Z,1.90
2018-11-10T21:42:28.084Z,3.17
2018-11-10T21:47:08.710Z,4.30
2018-11-10T21:51:49.393Z,6.22
2018-11-10T21:56:29.281Z,9.70
2018-11-10T22:01:09.741Z,5.78
2018-11-10T22:05:49.577Z,2.50
2018-11-10T22:10:30.444Z,5.25
2018-11-10T22:15:15.475Z,2.15
2018-11-10T22:19:55.514Z,5.58
2018-11-10T22:24:36.196Z,6.67
2018-11-10T22:29:16.801Z,4.10
2018-11-10T22:33:56.650Z,4.03
2018-11-10T22:38:36.729Z,4.92
2018-11-10T22:43:16.802Z,4.35
2018-11-10T22:47:56.787Z,4.42
2018-11-10T22:52:36.752Z,3.33
2018-11-10T22:57:16.845Z,2.70
2018-11-10T23:01:57.979Z,5.33
2018-11-10T23:06:38.044Z,3.92
2018-11-10T23:11:18.761Z,4.10
2018-11-10T23:15:58.908Z,3.85
2018-11-10T23:20:39.202Z,4.78
2018-11-10T23:25:19.569Z,6.17
2018-11-10T23:29:59.948Z,2.37
2018-11-10T23:34:39.883Z,4.85
2018-11-10T23:39:20.422Z,3.08
2018-11-10T23:44:00.494Z,2.83
2018-11-10T23:48:40.773Z,4.30
2018-11-10T23:53:20.757Z,5.65
2018-11-10T23:58:00.845Z,3.40
